首页
METAR-TAF:

METAR-TAF

机场 :

克里斯蒂亚诺·罗纳尔多机场

丰沙尔, 馬德拉群岛, 葡萄牙

纬度: 32-41-52N, 经度: 016-46-28W, 海拔: 59米

当前天气观测

该预报发布于41分钟前的21:00 UTC
风速2节,风向多变
温度 18°C
湿度 83%
气压 1015 hPa
能见度10公里或以上
少量云层高于1300英尺
少量云层高于1600英尺, 积雨云.

METAR: LPMA 212100Z VRB02KT 9999 FEW013 FEW016CB 18/15 Q1015

时间: 22:41 (21:41 UTC)

预报

该预报发布于4小时和41分钟前的17:00 UTC
预报有效从21日的 18点(UTC)到 22日的 18点(UTC)
风速5节,风向多变
能见度10公里或以上
散云层高于1500英尺
短暂存在
从 21日的 18点(UTC)到 22日的 18点(UTC)
能見度: 8000
多云层高于1300英尺
少量云层高于1600英尺, 积雨云.
阵雨
几率 30% :
短暂存在
从 21日的 18点(UTC)到 22日的 09点(UTC)
风速12节,风向多变,有时为22节阵风
能見度: 3000
散云层高于1600英尺, 积雨云.
雷暴, 雨
成为
从 22日的 09点(UTC)到 22日的 11点(UTC)
风速8节,风向西南

TAF: LPMA 211700Z 2118/2218 VRB05KT 9999 SCT015 TEMPO 2118/2218 8000 SHRA BKN013 FEW016CB PROB30 TEMPO 2118/2209 VRB12G22KT 3000 TSRA SCT016CB BECMG 2209/2211 22008KT

超过4000个机场的气象观测和天气预报(METAR&TAF报告)。

可查询的气象台以黄色和红色小点在地图上表示。

将鼠标移到小点上方,可查看气象台名称。

然后点击查看天气观测和预报。

如需切换地图:点击带黑十字的绿色按钮放大地图;点击带横线的绿色按钮缩小地图;或者点击绿色箭头查看邻近地区的地图。


METAR-TAF: